Time;durP1;ratioP1;P1;durP2;ratioP2;P2;SDS_P1;SDS_P2;PMS_P1;PMS_P2;Temp;Humidity;BMP_temperature;BMP_pressure;BME280_temperature;BME280_humidity;BME280_pressure;Samples;Min_cycle;Max_cycle;Signal;HPM_P1;HPM_P2
2024/04/08 00:02:04;;;;;;;;;;;;;;;6.88;100.00;101510.01;104839;1273;62216;-86
2024/04/08 00:04:31;;;;;;;;;;;;;;;6.87;100.00;101514.20;104699;1273;62079;-86
2024/04/08 00:06:59;;;;;;;;;;;;;;;6.84;100.00;101512.86;104894;1273;75167;-86
2024/04/08 00:09:26;;;;;;;;;;;;;;;6.84;100.00;101516.64;106769;1274;69023;-89
2024/04/08 00:11:54;;;;;;;;;;;;;;;6.87;100.00;101513.63;104633;1279;71497;-86
2024/04/08 00:14:22;;;;;;;;;;;;;;;6.89;100.00;101511.26;104651;1277;62181;-86
2024/04/08 00:16:49;;;;;;;;;;;;;;;6.89;100.00;101508.98;104511;1274;62216;-89
2024/04/08 00:19:17;;;;;;;;;;;;;;;6.92;100.00;101509.80;104601;1274;75476;-89
2024/04/08 00:21:45;;;;;;;;;;;;;;;6.91;100.00;101507.71;104747;1274;67645;-87
2024/04/08 00:24:12;;;;;;;;;;;;;;;6.92;100.00;101505.91;104559;1276;72544;-88
2024/04/08 00:26:40;;;;;;;;;;;;;;;6.87;100.00;101501.88;105766;1277;61980;-88
2024/04/08 00:29:07;;;;;;;;;;;;;;;6.84;100.00;101504.17;104731;1279;61994;-86
2024/04/08 00:31:35;;;;;;;;;;;;;;;6.80;100.00;101501.04;104814;1278;75905;-86
2024/04/08 00:34:02;;;;;;;;;;;;;;;6.78;100.00;101499.77;104777;1274;68560;-89
2024/04/08 00:36:30;;;;;;;;;;;;;;;6.75;100.00;101502.82;104557;1273;71692;-88
2024/04/08 00:38:58;;;;;;;;;;;;;;;6.75;100.00;101505.00;105582;1273;62079;-87
2024/04/08 00:41:25;;;;;;;;;;;;;;;6.71;100.00;101505.55;104680;1274;62092;-86
2024/04/08 00:43:53;;;;;;;;;;;;;;;6.69;100.00;101502.73;104611;1279;75474;-85
2024/04/08 00:46:20;;;;;;;;;;;;;;;6.70;100.00;101503.94;104594;1279;67345;-88
2024/04/08 00:48:49;;;;;;;;;;;;;;;6.68;100.00;101502.70;104715;1274;72796;-88
2024/04/08 00:51:17;;;;;;;;;;;;;;;6.64;100.00;101500.74;104729;1274;62120;-89
2024/04/08 00:53:49;;;;;;;;;;;;;;;6.61;100.00;101496.94;105095;1279;61976;-89
2024/04/08 00:56:17;;;;;;;;;;;;;;;6.57;100.00;101491.73;101398;1274;4581347;-89
2024/04/08 00:58:45;;;;;;;;;;;;;;;6.56;100.00;101495.13;104829;1273;67350;-89
2024/04/08 01:01:16;;;;;;;;;;;;;;;6.55;100.00;101493.30;104704;1276;73579;-88
2024/04/08 01:03:44;;;;;;;;;;;;;;;6.52;100.00;101493.90;104767;1276;62072;-89
2024/04/08 01:06:12;;;;;;;;;;;;;;;6.52;100.00;101493.36;105171;1273;62117;-89
2024/04/08 01:08:40;;;;;;;;;;;;;;;6.50;100.00;101495.64;104685;1274;76056;-87
2024/04/08 01:11:08;;;;;;;;;;;;;;;6.46;100.00;101496.36;104740;1273;68937;-88
2024/04/08 01:13:35;;;;;;;;;;;;;;;6.43;100.00;101500.35;104896;1279;71510;-86
2024/04/08 01:16:03;;;;;;;;;;;;;;;6.44;100.00;101501.90;105302;1275;62170;-87
2024/04/08 01:18:30;;;;;;;;;;;;;;;6.42;100.00;101502.70;104709;1273;62008;-86
2024/04/08 01:20:59;;;;;;;;;;;;;;;6.41;100.00;101505.02;104798;1274;75180;-88
2024/04/08 01:23:27;;;;;;;;;;;;;;;6.36;100.00;101507.45;104724;1274;68574;-89
2024/04/08 01:25:55;;;;;;;;;;;;;;;6.30;100.00;101509.06;104674;1275;72822;-89
2024/04/08 01:28:23;;;;;;;;;;;;;;;6.27;100.00;101508.64;104779;1277;62180;-86
2024/04/08 01:30:50;;;;;;;;;;;;;;;6.23;100.00;101507.38;105198;1274;62028;-89
2024/04/08 01:33:18;;;;;;;;;;;;;;;6.19;100.00;101504.92;104711;1277;74604;-89
2024/04/08 01:35:46;;;;;;;;;;;;;;;6.15;100.00;101502.00;104702;1273;72914;-86
2024/04/08 01:38:13;;;;;;;;;;;;;;;6.12;100.00;101509.66;104878;1278;72784;-87
2024/04/08 01:40:40;;;;;;;;;;;;;;;6.09;100.00;101510.36;104639;1276;62161;-89
2024/04/08 01:43:08;;;;;;;;;;;;;;;6.05;100.00;101513.27;104767;1274;62198;-89
2024/04/08 01:45:35;;;;;;;;;;;;;;;6.03;100.00;101514.01;105000;1278;75517;-88
2024/04/08 01:48:03;;;;;;;;;;;;;;;6.02;100.00;101513.38;105661;1273;67052;-89
2024/04/08 01:50:31;;;;;;;;;;;;;;;6.03;100.00;101514.26;104815;1274;72539;-89
2024/04/08 01:52:59;;;;;;;;;;;;;;;6.01;100.00;101518.38;104894;1278;62235;-89
2024/04/08 01:55:26;;;;;;;;;;;;;;;5.98;100.00;101517.65;104878;1274;62149;-88
2024/04/08 01:57:54;;;;;;;;;;;;;;;5.97;100.00;101517.98;104768;1274;73725;-88
2024/04/08 02:00:21;;;;;;;;;;;;;;;5.97;100.00;101518.08;104752;1273;68719;-87
2024/04/08 02:02:49;;;;;;;;;;;;;;;5.93;100.00;101517.11;105554;1274;71194;-88
2024/04/08 02:05:16;;;;;;;;;;;;;;;5.91;100.00;101516.68;104672;1279;62065;-85
2024/04/08 02:07:44;;;;;;;;;;;;;;;5.91;100.00;101514.51;104932;1274;62110;-88
2024/04/08 02:10:12;;;;;;;;;;;;;;;5.90;100.00;101520.65;104624;1274;74306;-86
2024/04/08 02:12:39;;;;;;;;;;;;;;;5.87;100.00;101528.64;104832;1274;68909;-88
2024/04/08 02:15:07;;;;;;;;;;;;;;;5.83;100.00;101534.98;104913;1274;72695;-86
2024/04/08 02:17:34;;;;;;;;;;;;;;;5.80;100.00;101535.91;104805;1277;62203;-88
2024/04/08 02:20:03;;;;;;;;;;;;;;;5.80;100.00;101539.38;104668;1274;62353;-86
2024/04/08 02:22:31;;;;;;;;;;;;;;;5.81;100.00;101540.20;104915;1274;74617;-89
2024/04/08 02:24:58;;;;;;;;;;;;;;;5.82;100.00;101539.98;104768;1274;67683;-89
2024/04/08 02:27:26;;;;;;;;;;;;;;;5.82;100.00;101538.40;104793;1274;72784;-86
2024/04/08 02:29:54;;;;;;;;;;;;;;;5.83;100.00;101538.53;105888;1274;62287;-86
2024/04/08 02:32:22;;;;;;;;;;;;;;;5.82;100.00;101536.98;104907;1276;62171;-89
2024/04/08 02:34:49;;;;;;;;;;;;;;;5.81;100.00;101539.41;104815;1278;74281;-86
2024/04/08 02:37:17;;;;;;;;;;;;;;;5.81;100.00;101542.38;104818;1274;68578;-86
2024/04/08 02:39:44;;;;;;;;;;;;;;;5.78;100.00;101542.46;104681;1277;71523;-86
2024/04/08 02:42:12;;;;;;;;;;;;;;;5.77;100.00;101542.96;104750;1277;62119;-86
2024/04/08 02:44:40;;;;;;;;;;;;;;;5.74;100.00;101543.98;105537;1274;62027;-86
2024/04/08 02:47:07;;;;;;;;;;;;;;;5.69;100.00;101549.73;104823;1274;75490;-86
2024/04/08 02:49:34;;;;;;;;;;;;;;;5.65;100.00;101546.89;104759;1277;68513;-86
2024/04/08 02:52:02;;;;;;;;;;;;;;;5.66;100.00;101546.39;104719;1277;72857;-86
2024/04/08 02:54:29;;;;;;;;;;;;;;;5.67;100.00;101543.32;104676;1274;62733;-86
2024/04/08 02:56:57;;;;;;;;;;;;;;;5.67;100.00;101545.38;104513;1276;62094;-86
2024/04/08 02:59:25;;;;;;;;;;;;;;;5.68;100.00;101543.33;104707;1274;75683;-86
2024/04/08 03:01:53;;;;;;;;;;;;;;;5.61;100.00;101546.30;105436;1274;67332;-86
2024/04/08 03:04:20;;;;;;;;;;;;;;;5.57;100.00;101544.65;104836;1279;71513;-85
2024/04/08 03:06:48;;;;;;;;;;;;;;;5.51;100.00;101543.73;104819;1274;62119;-85
2024/04/08 03:09:15;;;;;;;;;;;;;;;5.51;100.00;101545.89;104924;1274;60118;-85
2024/04/08 03:11:43;;;;;;;;;;;;;;;5.59;100.00;101546.98;104961;1277;75078;-85
2024/04/08 03:14:11;;;;;;;;;;;;;;;5.65;100.00;101551.60;104920;1273;68943;-85
2024/04/08 03:16:39;;;;;;;;;;;;;;;5.60;100.00;101549.30;104884;1279;71522;-86
2024/04/08 03:19:06;;;;;;;;;;;;;;;5.71;100.00;101552.77;104926;1278;62090;-85
2024/04/08 03:21:34;;;;;;;;;;;;;;;5.76;100.00;101551.48;104827;1273;62200;-88
2024/04/08 03:24:02;;;;;;;;;;;;;;;5.75;100.00;101552.11;104815;1274;75548;-88
2024/04/08 03:26:29;;;;;;;;;;;;;;;5.75;100.00;101554.16;104767;1274;68615;-88
2024/04/08 03:28:57;;;;;;;;;;;;;;;5.78;100.00;101554.80;104848;1277;71548;-88
2024/04/08 03:31:25;;;;;;;;;;;;;;;5.82;100.00;101558.73;105131;1279;62664;-89
2024/04/08 03:33:53;;;;;;;;;;;;;;;5.80;100.00;101550.98;104846;1275;62286;-88
2024/04/08 03:36:21;;;;;;;;;;;;;;;5.86;100.00;101556.67;104852;1277;75631;-88
2024/04/08 03:38:49;;;;;;;;;;;;;;;5.78;100.00;101562.89;104791;1274;67419;-89
2024/04/08 03:41:16;;;;;;;;;;;;;;;5.83;100.00;101563.08;104680;1274;72977;-88
2024/04/08 03:43:47;;;;;;;;;;;;;;;5.88;100.00;101568.91;104811;1274;62101;-89
2024/04/08 03:46:14;;;;;;;;;;;;;;;5.91;100.00;101574.61;105671;1274;62268;-89
2024/04/08 03:48:42;;;;;;;;;;;;;;;5.92;100.00;101578.27;104591;1275;74243;-88
2024/04/08 03:51:11;;;;;;;;;;;;;;;5.99;100.00;101571.48;104780;1274;68653;-88
2024/04/08 03:53:39;;;;;;;;;;;;;;;6.04;100.00;101574.35;104788;1274;72540;-87
2024/04/08 03:56:07;;;;;;;;;;;;;;;6.17;100.00;101572.29;104887;1279;62163;-89
2024/04/08 03:58:34;;;;;;;;;;;;;;;6.22;100.00;101575.21;105153;1279;62091;-88
2024/04/08 04:01:02;;;;;;;;;;;;;;;6.32;100.00;101574.23;105182;1279;74406;-88
2024/04/08 04:03:29;;;;;;;;;;;;;;;6.42;100.00;101582.08;104872;1273;67340;-89
2024/04/08 04:05:57;;;;;;;;;;;;;;;6.52;100.00;101583.36;104828;1273;74113;-88
2024/04/08 04:08:25;;;;;;;;;;;;;;;6.61;100.00;101579.63;104727;1273;62191;-88
2024/04/08 04:10:52;;;;;;;;;;;;;;;6.73;100.00;101579.33;104811;1274;62193;-90
2024/04/08 04:13:21;;;;;;;;;;;;;;;6.89;100.00;101575.88;104798;1273;77768;-90
2024/04/08 04:15:49;;;;;;;;;;;;;;;6.96;100.00;101575.20;105184;1273;67628;-89
2024/04/08 04:18:17;;;;;;;;;;;;;;;7.15;100.00;101577.62;104739;1274;74980;-89
2024/04/08 04:20:47;;;;;;;;;;;;;;;7.42;100.00;101578.17;104743;1274;62182;-90
2024/04/08 04:23:16;;;;;;;;;;;;;;;7.62;100.00;101577.62;104974;1273;62072;-87
2024/04/08 04:25:47;;;;;;;;;;;;;;;7.77;100.00;101572.13;104566;1279;75796;-89
2024/04/08 04:28:15;;;;;;;;;;;;;;;7.94;100.00;101572.94;104828;1274;67677;-90
2024/04/08 04:30:43;;;;;;;;;;;;;;;8.11;100.00;101574.29;105038;1278;73337;-91
2024/04/08 04:33:12;;;;;;;;;;;;;;;8.27;100.00;101572.21;104875;1276;62387;-86
2024/04/08 04:35:39;;;;;;;;;;;;;;;8.48;100.00;101576.73;104863;1273;62139;-90
2024/04/08 04:38:07;;;;;;;;;;;;;;;8.69;100.00;101584.02;104533;1274;75759;-89
2024/04/08 04:42:42;;;;;;;;;;;;;;;9.05;100.00;101583.95;103142;1294;598752;-83
2024/04/08 04:45:10;;;;;;;;;;;;;;;9.23;100.00;101586.35;105859;1273;60490;-85
2024/04/08 04:47:50;;;;;;;;;;;;;;;9.48;100.00;101584.75;105836;1270;60726;-85
2024/04/08 04:50:19;;;;;;;;;;;;;;;9.65;100.00;101586.86;105639;1266;73820;-83
2024/04/08 04:52:49;;;;;;;;;;;;;;;9.82;100.00;101583.23;105705;1272;68474;-85
2024/04/08 04:55:16;;;;;;;;;;;;;;;10.02;100.00;101574.38;106139;1260;208199;-85
2024/04/08 04:57:46;;;;;;;;;;;;;;;10.20;100.00;101575.02;106271;1254;60764;-85
2024/04/08 05:00:13;;;;;;;;;;;;;;;10.36;100.00;101577.14;107672;1256;61913;-83
2024/04/08 05:02:42;;;;;;;;;;;;;;;10.45;100.00;101572.79;106693;1253;73088;-84
2024/04/08 05:05:09;;;;;;;;;;;;;;;10.57;100.00;101575.58;107185;1257;68798;-86
2024/04/08 05:07:37;;;;;;;;;;;;;;;10.66;100.00;101573.79;106640;1257;71365;-83
2024/04/08 05:10:05;;;;;;;;;;;;;;;10.83;100.00;101575.21;106451;1256;60380;-89
2024/04/08 05:12:32;;;;;;;;;;;;;;;10.93;100.00;101572.88;106203;1257;60399;-85
2024/04/08 05:15:00;;;;;;;;;;;;;;;11.09;100.00;101573.02;106440;1254;72594;-85
2024/04/08 05:17:27;;;;;;;;;;;;;;;11.30;100.00;101572.22;106566;1257;67251;-83
2024/04/08 05:20:01;;;;;;;;;;;;;;;11.53;100.00;101569.99;106719;1255;71436;-85
2024/04/08 05:22:28;;;;;;;;;;;;;;;11.74;100.00;101569.69;106680;1260;60527;-85
2024/04/08 05:24:56;;;;;;;;;;;;;;;11.88;100.00;101569.30;106668;1254;60552;-86
2024/04/08 05:27:24;;;;;;;;;;;;;;;12.08;100.00;101561.81;106527;1255;73938;-86
2024/04/08 05:29:52;;;;;;;;;;;;;;;12.32;100.00;101561.21;107460;1254;66317;-86
2024/04/08 05:32:19;;;;;;;;;;;;;;;12.62;100.00;101559.20;106863;1253;72471;-83
2024/04/08 05:34:47;;;;;;;;;;;;;;;12.90;100.00;101561.63;106901;1254;60431;-83
2024/04/08 05:37:15;;;;;;;;;;;;;;;13.08;100.00;101562.09;106955;1254;60303;-86
2024/04/08 05:39:42;;;;;;;;;;;;;;;13.33;100.00;101565.55;106628;1257;74168;-86
2024/04/08 05:42:10;;;;;;;;;;;;;;;13.64;100.00;101565.88;106505;1254;70334;-88
2024/04/08 05:44:37;;;;;;;;;;;;;;;13.94;100.00;101565.95;106290;1255;72742;-89
2024/04/08 05:47:05;;;;;;;;;;;;;;;14.21;100.00;101564.13;106357;1253;60427;-88
2024/04/08 05:49:33;;;;;;;;;;;;;;;14.44;100.00;101562.55;106138;1259;60395;-85
2024/04/08 05:52:00;;;;;;;;;;;;;;;14.74;100.00;101553.82;106559;1254;75356;-87
2024/04/08 05:54:28;;;;;;;;;;;;;;;15.04;100.00;101552.46;106435;1254;69310;-85
2024/04/08 05:56:55;;;;;;;;;;;;;;;15.45;100.00;101553.56;106517;1254;72702;-85
2024/04/08 05:59:23;;;;;;;;;;;;;;;15.81;100.00;101544.23;106491;1260;60420;-89
2024/04/08 06:01:51;;;;;;;;;;;;;;;16.20;100.00;101537.21;106348;1253;60520;-85
2024/04/08 06:04:18;;;;;;;;;;;;;;;16.60;100.00;101543.54;106250;1254;73951;-86
2024/04/08 06:06:46;;;;;;;;;;;;;;;16.97;100.00;101543.05;107034;1256;68571;-90
2024/04/08 06:09:14;;;;;;;;;;;;;;;17.26;100.00;101539.34;106563;1257;72265;-87
2024/04/08 06:11:41;;;;;;;;;;;;;;;17.63;100.00;101542.95;106593;1258;60290;-86
2024/04/08 06:14:10;;;;;;;;;;;;;;;17.94;100.00;101539.88;106321;1253;60421;-88
2024/04/08 06:16:37;;;;;;;;;;;;;;;18.22;100.00;101542.20;106309;1260;73885;-86
2024/04/08 06:19:05;;;;;;;;;;;;;;;18.39;100.00;101543.43;106264;1254;68513;-88
2024/04/08 06:21:32;;;;;;;;;;;;;;;18.57;100.00;101543.86;106239;1257;72620;-88
2024/04/08 06:24:00;;;;;;;;;;;;;;;18.72;100.00;101550.04;106723;1254;60418;-87
2024/04/08 06:26:28;;;;;;;;;;;;;;;18.85;100.00;101552.30;106670;1257;60357;-90
2024/04/08 06:28:56;;;;;;;;;;;;;;;19.04;100.00;101550.02;106443;1254;73910;-87
2024/04/08 06:31:23;;;;;;;;;;;;;;;19.27;98.35;101551.62;106251;1253;68947;-88
2024/04/08 06:33:51;;;;;;;;;;;;;;;19.48;92.39;101551.75;106330;1254;72537;-87
2024/04/08 06:36:21;;;;;;;;;;;;;;;19.62;88.85;101551.05;106064;1254;60457;-87
2024/04/08 06:38:48;;;;;;;;;;;;;;;19.78;86.00;101548.23;106811;1252;60383;-86
2024/04/08 06:41:18;;;;;;;;;;;;;;;19.94;85.69;101548.61;106255;1260;76331;-87
2024/04/08 06:43:46;;;;;;;;;;;;;;;20.08;80.14;101547.64;106425;1254;68546;-87
2024/04/08 06:46:13;;;;;;;;;;;;;;;20.25;78.76;101544.55;106871;1253;73604;-85
2024/04/08 06:48:41;;;;;;;;;;;;;;;20.45;74.74;101545.89;106572;1254;60498;-86
2024/04/08 06:51:09;;;;;;;;;;;;;;;20.61;73.38;101549.19;106165;1254;60351;-84
2024/04/08 06:53:36;;;;;;;;;;;;;;;20.76;70.54;101543.88;106748;1257;76071;-86
2024/04/08 06:56:04;;;;;;;;;;;;;;;20.87;68.39;101548.71;106417;1261;67408;-86
2024/04/08 06:58:32;;;;;;;;;;;;;;;20.99;67.65;101547.20;106502;1254;72706;-85
2024/04/08 07:01:00;;;;;;;;;;;;;;;21.11;66.44;101548.89;106386;1261;60527;-87
2024/04/08 07:03:28;;;;;;;;;;;;;;;21.23;62.62;101543.98;106390;1254;60496;-86
2024/04/08 07:05:56;;;;;;;;;;;;;;;21.26;62.95;101546.73;106288;1254;72657;-86
2024/04/08 07:08:23;;;;;;;;;;;;;;;21.32;64.02;101545.98;106447;1256;69441;-86
2024/04/08 07:10:51;;;;;;;;;;;;;;;21.43;64.78;101546.33;106486;1254;71819;-85
2024/04/08 07:13:20;;;;;;;;;;;;;;;21.66;64.28;101545.77;106460;1253;61236;-86
2024/04/08 07:15:57;;;;;;;;;;;;;;;21.87;61.63;101542.79;106306;1253;60449;-85
2024/04/08 07:18:24;;;;;;;;;;;;;;;22.00;58.45;101544.05;106293;1253;74681;-85
2024/04/08 07:20:52;;;;;;;;;;;;;;;22.07;58.14;101542.89;106543;1257;68456;-86
2024/04/08 07:23:20;;;;;;;;;;;;;;;22.19;56.78;101542.86;106580;1254;72016;-86
2024/04/08 07:25:49;;;;;;;;;;;;;;;22.28;55.12;101547.17;106296;1259;60562;-85
2024/04/08 07:28:16;;;;;;;;;;;;;;;22.30;54.33;101548.85;106438;1256;59570;-86
2024/04/08 07:30:44;;;;;;;;;;;;;;;22.29;53.37;101546.72;106363;1253;74412;-85
2024/04/08 07:33:11;;;;;;;;;;;;;;;22.31;53.45;101543.95;106275;1257;67225;-85
2024/04/08 07:35:39;;;;;;;;;;;;;;;22.38;53.15;101538.96;106267;1253;72769;-85
2024/04/08 07:38:07;;;;;;;;;;;;;;;22.38;52.44;101533.70;106486;1254;61193;-86
2024/04/08 07:40:37;;;;;;;;;;;;;;;22.40;52.44;101529.65;106484;1254;62426;-83
2024/04/08 07:43:39;;;;;;;;;;;;;;;22.53;52.26;101529.23;106560;1257;73918;-85
2024/04/08 07:46:07;;;;;;;;;;;;;;;22.70;51.29;101525.83;106313;1254;68959;-86
2024/04/08 07:48:35;;;;;;;;;;;;;;;22.86;50.14;101521.52;106439;1253;72749;-86
2024/04/08 07:51:02;;;;;;;;;;;;;;;22.99;48.76;101518.98;106430;1257;60466;-86
2024/04/08 07:53:32;;;;;;;;;;;;;;;23.09;48.49;101518.77;106324;1254;60380;-88
2024/04/08 07:56:00;;;;;;;;;;;;;;;23.23;47.83;101522.73;106451;1254;73364;-87
2024/04/08 07:58:29;;;;;;;;;;;;;;;23.30;46.17;101522.45;106491;1260;67196;-85
2024/04/08 08:00:59;;;;;;;;;;;;;;;23.27;46.38;101518.99;106439;1253;73263;-85
2024/04/08 08:03:27;;;;;;;;;;;;;;;23.29;46.64;101517.80;106308;1260;60530;-85
2024/04/08 08:05:55;;;;;;;;;;;;;;;23.42;48.49;101515.18;106354;1256;62002;-85
2024/04/08 08:08:26;;;;;;;;;;;;;;;23.61;48.79;101510.15;106575;1253;72629;-85
2024/04/08 08:10:56;;;;;;;;;;;;;;;23.80;46.44;101510.29;106287;1253;68843;-86
2024/04/08 08:13:24;;;;;;;;;;;;;;;23.92;45.08;101512.80;106351;1254;74865;-86
2024/04/08 08:15:55;;;;;;;;;;;;;;;24.01;44.02;101508.65;106311;1253;60569;-86
2024/04/08 08:18:23;;;;;;;;;;;;;;;24.08;43.80;101509.46;106345;1254;60568;-85
2024/04/08 08:20:51;;;;;;;;;;;;;;;24.11;44.14;101511.93;106376;1256;74071;-85
2024/04/08 08:23:19;;;;;;;;;;;;;;;24.09;42.08;101507.15;106809;1256;69889;-85
2024/04/08 08:25:46;;;;;;;;;;;;;;;23.94;41.78;101505.16;106449;1254;72764;-83
2024/04/08 08:28:14;;;;;;;;;;;;;;;23.85;42.13;101500.36;106615;1256;61255;-83
2024/04/08 08:30:42;;;;;;;;;;;;;;;23.82;41.94;101501.22;106270;1259;61090;-83
2024/04/08 08:33:09;;;;;;;;;;;;;;;23.89;42.27;101499.36;106317;1254;73862;-84
2024/04/08 08:35:37;;;;;;;;;;;;;;;24.01;41.95;101495.02;106507;1254;67561;-84
2024/04/08 08:38:06;;;;;;;;;;;;;;;24.15;41.60;101493.03;106598;1254;71483;-83
2024/04/08 08:40:38;;;;;;;;;;;;;;;24.23;41.40;101497.92;106907;1254;60578;-85
2024/04/08 08:43:07;;;;;;;;;;;;;;;24.20;40.55;101501.48;106403;1254;62340;-84
2024/04/08 08:45:36;;;;;;;;;;;;;;;24.11;40.18;101499.17;106358;1259;74316;-83
2024/04/08 08:48:04;;;;;;;;;;;;;;;24.04;40.84;101495.52;106337;1254;68882;-83
2024/04/08 08:50:31;;;;;;;;;;;;;;;24.13;41.14;101486.97;106306;1254;73185;-84
2024/04/08 08:52:59;;;;;;;;;;;;;;;24.34;41.62;101485.37;106358;1256;61187;-83
2024/04/08 08:55:26;;;;;;;;;;;;;;;24.58;40.66;101484.98;106308;1256;61250;-84
2024/04/08 08:57:54;;;;;;;;;;;;;;;24.66;39.79;101482.36;106119;1253;73655;-84
2024/04/08 09:00:23;;;;;;;;;;;;;;;24.63;39.85;101485.07;106582;1254;61218;-83
2024/04/08 09:02:51;;;;;;;;;;;;;;;24.69;41.10;101492.03;106650;1254;73222;-83
2024/04/08 09:05:19;;;;;;;;;;;;;;;24.87;40.89;101485.41;106334;1257;61291;-84
2024/04/08 09:07:46;;;;;;;;;;;;;;;25.01;40.03;101482.25;106358;1255;61235;-83
2024/04/08 09:10:14;;;;;;;;;;;;;;;25.04;39.18;101477.38;106363;1257;65878;-83
2024/04/08 09:12:42;;;;;;;;;;;;;;;25.09;40.13;101468.98;106633;1254;61269;-83
2024/04/08 09:15:11;;;;;;;;;;;;;;;25.25;40.34;101471.23;106293;1256;63933;-84
2024/04/08 09:17:38;;;;;;;;;;;;;;;25.26;38.11;101471.37;106386;1254;61269;-83
2024/04/08 09:20:06;;;;;;;;;;;;;;;25.08;38.18;101471.98;106517;1253;61902;-83
2024/04/08 09:22:34;;;;;;;;;;;;;;;24.94;38.07;101469.73;106402;1254;66651;-83
2024/04/08 09:25:02;;;;;;;;;;;;;;;24.90;38.64;101470.32;106389;1253;61206;-83
2024/04/08 09:27:30;;;;;;;;;;;;;;;24.98;38.57;101471.14;106359;1254;64214;-83
2024/04/08 09:29:58;;;;;;;;;;;;;;;24.98;38.30;101464.72;106403;1256;60315;-83
2024/04/08 09:32:25;;;;;;;;;;;;;;;24.92;39.46;101459.43;106515;1253;61535;-85
2024/04/08 09:34:53;;;;;;;;;;;;;;;24.94;39.07;101451.51;106592;1253;64605;-84
2024/04/08 09:37:20;;;;;;;;;;;;;;;24.94;38.90;101444.80;106475;1256;61568;-83
2024/04/08 09:39:48;;;;;;;;;;;;;;;25.01;39.25;101453.71;106392;1253;74953;-83
2024/04/08 09:42:15;;;;;;;;;;;;;;;25.14;38.82;101445.66;106427;1254;61385;-83
2024/04/08 09:44:43;;;;;;;;;;;;;;;25.23;38.73;101446.89;106483;1253;61266;-83
2024/04/08 09:47:11;;;;;;;;;;;;;;;25.30;38.20;101448.38;106454;1254;67483;-83
2024/04/08 09:49:38;;;;;;;;;;;;;;;25.34;38.39;101444.73;106496;1256;61217;-83
2024/04/08 09:52:16;;;;;;;;;;;;;;;25.36;39.12;101442.64;106514;1254;63823;-83
2024/04/08 09:54:43;;;;;;;;;;;;;;;25.47;38.41;101436.79;106328;1253;61228;-84
2024/04/08 09:57:11;;;;;;;;;;;;;;;25.50;38.88;101439.33;106415;1253;61167;-86
2024/04/08 09:59:39;;;;;;;;;;;;;;;25.15;41.69;101441.83;106467;1253;64530;-84
2024/04/08 10:02:11;;;;;;;;;;;;;;;24.72;43.64;101438.54;106533;1254;62349;-84
2024/04/08 10:04:39;;;;;;;;;;;;;;;24.41;43.74;101434.67;106270;1260;62512;-86
2024/04/08 10:07:06;;;;;;;;;;;;;;;24.23;43.53;101434.31;106207;1253;61276;-84
2024/04/08 10:09:34;;;;;;;;;;;;;;;24.12;44.48;101433.57;106280;1253;61266;-84
2024/04/08 10:12:20;;;;;;;;;;;;;;;24.11;45.78;101430.58;106410;1259;74725;-83
2024/04/08 10:15:12;;;;;;;;;;;;;;;24.15;44.57;101429.92;106282;1257;68821;-87
2024/04/08 10:17:40;;;;;;;;;;;;;;;24.27;42.58;101426.55;106313;1257;71711;-84
2024/04/08 10:20:10;;;;;;;;;;;;;;;24.35;41.43;101420.84;106362;1254;61247;-83
2024/04/08 10:22:37;;;;;;;;;;;;;;;24.52;40.26;101419.65;106339;1253;61151;-84
2024/04/08 10:27:15;;;;;;;;;;;;;;;24.91;38.96;101408.61;103141;1295;599434;-84
2024/04/08 10:29:43;;;;;;;;;;;;;;;25.08;38.59;101402.09;105624;1268;62402;-85
2024/04/08 10:32:12;;;;;;;;;;;;;;;25.28;37.96;101402.02;106372;1269;59641;-85
2024/04/08 10:34:41;;;;;;;;;;;;;;;25.52;37.46;101396.45;105636;1268;62936;-87
2024/04/08 10:37:09;;;;;;;;;;;;;;;25.68;36.89;101391.84;105319;1273;60480;-87
2024/04/08 10:39:36;;;;;;;;;;;;;;;25.85;37.20;101386.86;105409;1269;62534;-85
2024/04/08 10:42:14;;;;;;;;;;;;;;;26.00;36.40;101381.48;105423;1266;197357;-86
2024/04/08 10:44:42;;;;;;;;;;;;;;;26.14;35.62;101378.41;105549;1266;60872;-87
2024/04/08 10:47:09;;;;;;;;;;;;;;;26.15;37.31;101387.86;105632;1266;64316;-87
2024/04/08 10:49:37;;;;;;;;;;;;;;;25.93;38.69;101395.46;105683;1266;60036;-87
2024/04/08 10:52:04;;;;;;;;;;;;;;;25.63;39.50;101391.89;105542;1266;73783;-87
2024/04/08 10:54:32;;;;;;;;;;;;;;;25.32;40.11;101390.47;105835;1265;60525;-88
2024/04/08 10:57:00;;;;;;;;;;;;;;;25.10;40.43;101389.20;105525;1266;60362;-86
2024/04/08 10:59:27;;;;;;;;;;;;;;;25.09;40.75;101381.20;105645;1266;63716;-82
2024/04/08 11:01:56;;;;;;;;;;;;;;;25.27;40.41;101366.35;105523;1266;60460;-87
2024/04/08 11:04:27;;;;;;;;;;;;;;;25.52;39.99;101360.16;105411;1266;63419;-84
2024/04/08 11:06:54;;;;;;;;;;;;;;;25.72;42.31;101362.38;105547;1267;60511;-87
2024/04/08 11:09:22;;;;;;;;;;;;;;;25.76;40.03;101360.05;105438;1266;60387;-85
2024/04/08 11:11:49;;;;;;;;;;;;;;;25.76;41.59;101362.14;105578;1266;66655;-87
2024/04/08 11:14:18;;;;;;;;;;;;;;;25.73;40.91;101352.70;105542;1267;71030;-83
2024/04/08 11:16:46;;;;;;;;;;;;;;;25.63;40.03;101349.33;105574;1269;62737;-84
2024/04/08 11:19:13;;;;;;;;;;;;;;;25.44;42.37;101342.67;105555;1266;61231;-87
2024/04/08 11:21:41;;;;;;;;;;;;;;;25.29;44.65;101343.97;105522;1266;60347;-86
2024/04/08 11:24:11;;;;;;;;;;;;;;;25.14;45.00;101343.05;105402;1266;63744;-87
2024/04/08 11:26:39;;;;;;;;;;;;;;;25.04;44.86;101340.52;105503;1267;60414;-83
2024/04/08 11:29:21;;;;;;;;;;;;;;;25.01;43.58;101335.52;105513;1267;62939;-87
2024/04/08 11:31:49;;;;;;;;;;;;;;;25.03;44.24;101336.11;105504;1267;60440;-84
2024/04/08 11:34:17;;;;;;;;;;;;;;;25.10;44.04;101332.25;105581;1273;60415;-83
2024/04/08 11:36:44;;;;;;;;;;;;;;;25.26;43.91;101331.16;105908;1266;63722;-87
2024/04/08 11:39:12;;;;;;;;;;;;;;;25.49;44.10;101326.18;105477;1266;61148;-87
2024/04/08 11:41:39;;;;;;;;;;;;;;;25.67;44.02;101328.64;105502;1270;62570;-87
2024/04/08 11:44:07;;;;;;;;;;;;;;;25.74;42.07;101324.51;105635;1267;60517;-83
2024/04/08 11:46:35;;;;;;;;;;;;;;;25.78;42.38;101328.19;105486;1271;60578;-89
2024/04/08 11:49:03;;;;;;;;;;;;;;;25.81;42.12;101327.30;105553;1266;66971;-85
2024/04/08 11:51:30;;;;;;;;;;;;;;;25.82;41.36;101318.80;105496;1266;71140;-85
2024/04/08 11:53:58;;;;;;;;;;;;;;;25.80;41.80;101313.69;105531;1272;62886;-84
2024/04/08 11:56:26;;;;;;;;;;;;;;;25.77;41.84;101311.23;105514;1265;60985;-84
2024/04/08 11:58:53;;;;;;;;;;;;;;;25.81;42.81;101307.07;105530;1266;60591;-84
2024/04/08 12:01:21;;;;;;;;;;;;;;;25.97;43.45;101305.98;105486;1271;65031;-83
2024/04/08 12:03:49;;;;;;;;;;;;;;;26.17;42.66;101302.11;105575;1267;60373;-88
2024/04/08 12:06:16;;;;;;;;;;;;;;;26.33;42.14;101300.14;105551;1266;63856;-85
2024/04/08 12:08:44;;;;;;;;;;;;;;;26.34;41.43;101296.56;105382;1266;60355;-84
2024/04/08 12:11:12;;;;;;;;;;;;;;;26.31;41.25;101295.45;105508;1266;60476;-88
2024/04/08 12:13:39;;;;;;;;;;;;;;;26.34;40.62;101302.52;105419;1272;65562;-88
2024/04/08 12:16:10;;;;;;;;;;;;;;;26.43;39.97;101299.48;105454;1270;60453;-85
2024/04/08 12:18:38;;;;;;;;;;;;;;;26.39;40.05;101294.77;105598;1267;63863;-85
2024/04/08 12:21:06;;;;;;;;;;;;;;;26.27;40.44;101297.36;105459;1266;62185;-86
2024/04/08 12:23:33;;;;;;;;;;;;;;;26.23;40.32;101294.73;105893;1260;60825;-86
2024/04/08 12:26:01;;;;;;;;;;;;;;;26.22;39.67;101292.79;105878;1260;67187;-86
2024/04/08 12:28:29;;;;;;;;;;;;;;;26.20;39.42;101292.64;105839;1260;60388;-87
2024/04/08 12:30:57;;;;;;;;;;;;;;;26.14;39.74;101294.36;106008;1257;63912;-86
2024/04/08 12:33:25;;;;;;;;;;;;;;;26.11;39.48;101296.20;106196;1260;60552;-84
2024/04/08 12:35:53;;;;;;;;;;;;;;;26.13;39.39;101296.59;105926;1260;60455;-86